sensor_id;sensor_type;location;lat;lon;timestamp;P1;durP1;ratioP1;P2;durP2;ratioP2
17714;SDS011;8977;50.902;4.314;2022-08-01T00:01:35;4.70;;;2.15;;
17714;SDS011;8977;50.902;4.314;2022-08-01T00:04:03;3.53;;;2.30;;
17714;SDS011;8977;50.902;4.314;2022-08-01T00:06:30;5.85;;;2.55;;
17714;SDS011;8977;50.902;4.314;2022-08-01T00:08:57;6.82;;;2.90;;
17714;SDS011;8977;50.902;4.314;2022-08-01T00:11:24;6.82;;;3.55;;
17714;SDS011;8977;50.902;4.314;2022-08-01T00:13:51;4.03;;;2.78;;
17714;SDS011;8977;50.902;4.314;2022-08-01T00:16:18;5.38;;;3.47;;
17714;SDS011;8977;50.902;4.314;2022-08-01T00:18:47;5.55;;;3.58;;
17714;SDS011;8977;50.902;4.314;2022-08-01T00:21:16;5.97;;;3.53;;
17714;SDS011;8977;50.902;4.314;2022-08-01T00:23:43;6.43;;;3.60;;
17714;SDS011;8977;50.902;4.314;2022-08-01T00:26:11;5.40;;;3.10;;
17714;SDS011;8977;50.902;4.314;2022-08-01T00:28:38;3.60;;;2.78;;
17714;SDS011;8977;50.902;4.314;2022-08-01T00:31:05;4.22;;;3.05;;
17714;SDS011;8977;50.902;4.314;2022-08-01T00:33:32;4.53;;;2.72;;
17714;SDS011;8977;50.902;4.314;2022-08-01T00:35:59;6.63;;;2.90;;
17714;SDS011;8977;50.902;4.314;2022-08-01T00:38:27;5.13;;;3.25;;
17714;SDS011;8977;50.902;4.314;2022-08-01T00:40:54;4.75;;;2.83;;
17714;SDS011;8977;50.902;4.314;2022-08-01T00:43:21;9.68;;;3.28;;
17714;SDS011;8977;50.902;4.314;2022-08-01T00:45:48;5.65;;;2.60;;
17714;SDS011;8977;50.902;4.314;2022-08-01T00:48:15;3.78;;;2.47;;
17714;SDS011;8977;50.902;4.314;2022-08-01T00:50:42;3.65;;;2.55;;
17714;SDS011;8977;50.902;4.314;2022-08-01T00:53:10;5.03;;;2.50;;
17714;SDS011;8977;50.902;4.314;2022-08-01T00:55:38;4.63;;;3.17;;
17714;SDS011;8977;50.902;4.314;2022-08-01T00:58:05;4.97;;;2.67;;
17714;SDS011;8977;50.902;4.314;2022-08-01T01:00:33;5.28;;;3.30;;
17714;SDS011;8977;50.902;4.314;2022-08-01T01:03:01;4.70;;;3.17;;
17714;SDS011;8977;50.902;4.314;2022-08-01T01:05:28;6.20;;;3.90;;
17714;SDS011;8977;50.902;4.314;2022-08-01T01:08:02;5.78;;;3.80;;
17714;SDS011;8977;50.902;4.314;2022-08-01T01:10:32;4.30;;;3.83;;
17714;SDS011;8977;50.902;4.314;2022-08-01T01:13:09;6.15;;;4.43;;
17714;SDS011;8977;50.902;4.314;2022-08-01T01:15:40;6.55;;;4.28;;
17714;SDS011;8977;50.902;4.314;2022-08-01T01:18:11;7.40;;;5.75;;
17714;SDS011;8977;50.902;4.314;2022-08-01T01:20:45;8.05;;;5.53;;
17714;SDS011;8977;50.902;4.314;2022-08-01T01:23:27;7.75;;;5.45;;
17714;SDS011;8977;50.902;4.314;2022-08-01T01:26:17;8.40;;;6.25;;
17714;SDS011;8977;50.902;4.314;2022-08-01T01:29:03;10.65;;;5.72;;
17714;SDS011;8977;50.902;4.314;2022-08-01T01:31:33;10.63;;;6.18;;
17714;SDS011;8977;50.902;4.314;2022-08-01T01:34:06;7.32;;;5.90;;
17714;SDS011;8977;50.902;4.314;2022-08-01T01:36:35;7.13;;;5.95;;
17714;SDS011;8977;50.902;4.314;2022-08-01T01:39:04;14.93;;;6.88;;
17714;SDS011;8977;50.902;4.314;2022-08-01T01:41:32;8.40;;;6.15;;
17714;SDS011;8977;50.902;4.314;2022-08-01T01:44:00;11.77;;;6.82;;
17714;SDS011;8977;50.902;4.314;2022-08-01T01:46:29;12.73;;;7.18;;
17714;SDS011;8977;50.902;4.314;2022-08-01T01:48:58;12.05;;;7.68;;
17714;SDS011;8977;50.902;4.314;2022-08-01T01:51:25;12.80;;;7.40;;
17714;SDS011;8977;50.902;4.314;2022-08-01T01:53:54;14.23;;;7.97;;
17714;SDS011;8977;50.902;4.314;2022-08-01T01:56:23;12.88;;;7.63;;
17714;SDS011;8977;50.902;4.314;2022-08-01T01:58:52;14.25;;;8.50;;
17714;SDS011;8977;50.902;4.314;2022-08-01T02:01:24;10.85;;;7.32;;
17714;SDS011;8977;50.902;4.314;2022-08-01T02:03:54;13.38;;;7.60;;
17714;SDS011;8977;50.902;4.314;2022-08-01T02:06:22;11.13;;;7.63;;
17714;SDS011;8977;50.902;4.314;2022-08-01T02:08:51;15.93;;;9.57;;
17714;SDS011;8977;50.902;4.314;2022-08-01T02:11:19;11.95;;;7.30;;
17714;SDS011;8977;50.902;4.314;2022-08-01T02:13:48;11.43;;;7.38;;
17714;SDS011;8977;50.902;4.314;2022-08-01T02:16:20;13.90;;;7.80;;
17714;SDS011;8977;50.902;4.314;2022-08-01T02:18:52;10.88;;;6.97;;
17714;SDS011;8977;50.902;4.314;2022-08-01T02:21:20;11.25;;;6.88;;
17714;SDS011;8977;50.902;4.314;2022-08-01T02:23:51;13.90;;;7.65;;
17714;SDS011;8977;50.902;4.314;2022-08-01T02:26:21;14.52;;;7.50;;
17714;SDS011;8977;50.902;4.314;2022-08-01T02:28:50;14.88;;;8.20;;
17714;SDS011;8977;50.902;4.314;2022-08-01T02:31:24;14.45;;;7.88;;
17714;SDS011;8977;50.902;4.314;2022-08-01T02:33:54;13.05;;;7.68;;
17714;SDS011;8977;50.902;4.314;2022-08-01T02:36:27;16.23;;;8.05;;
17714;SDS011;8977;50.902;4.314;2022-08-01T02:38:56;12.18;;;7.65;;
17714;SDS011;8977;50.902;4.314;2022-08-01T02:41:25;14.65;;;7.63;;
17714;SDS011;8977;50.902;4.314;2022-08-01T02:43:56;11.00;;;7.45;;
17714;SDS011;8977;50.902;4.314;2022-08-01T02:46:31;14.60;;;7.53;;
17714;SDS011;8977;50.902;4.314;2022-08-01T02:49:02;15.13;;;8.15;;
17714;SDS011;8977;50.902;4.314;2022-08-01T02:51:31;12.98;;;7.90;;
17714;SDS011;8977;50.902;4.314;2022-08-01T02:54:01;12.90;;;7.78;;
17714;SDS011;8977;50.902;4.314;2022-08-01T02:56:30;12.85;;;7.50;;
17714;SDS011;8977;50.902;4.314;2022-08-01T02:59:01;13.10;;;8.18;;
17714;SDS011;8977;50.902;4.314;2022-08-01T03:01:32;15.75;;;9.07;;
17714;SDS011;8977;50.902;4.314;2022-08-01T03:04:01;13.93;;;8.23;;
17714;SDS011;8977;50.902;4.314;2022-08-01T03:06:29;16.90;;;8.85;;
17714;SDS011;8977;50.902;4.314;2022-08-01T03:08:58;12.07;;;8.35;;
17714;SDS011;8977;50.902;4.314;2022-08-01T03:11:28;13.18;;;8.18;;
17714;SDS011;8977;50.902;4.314;2022-08-01T03:13:56;15.57;;;10.15;;
17714;SDS011;8977;50.902;4.314;2022-08-01T03:16:27;16.27;;;10.07;;
17714;SDS011;8977;50.902;4.314;2022-08-01T03:18:57;17.65;;;9.98;;
17714;SDS011;8977;50.902;4.314;2022-08-01T03:21:27;18.15;;;9.55;;
17714;SDS011;8977;50.902;4.314;2022-08-01T03:23:55;15.57;;;9.48;;
17714;SDS011;8977;50.902;4.314;2022-08-01T03:26:26;14.27;;;9.95;;
17714;SDS011;8977;50.902;4.314;2022-08-01T03:28:55;13.65;;;9.60;;
17714;SDS011;8977;50.902;4.314;2022-08-01T03:31:23;16.98;;;9.50;;
17714;SDS011;8977;50.902;4.314;2022-08-01T03:33:51;15.18;;;9.57;;
17714;SDS011;8977;50.902;4.314;2022-08-01T03:36:21;18.55;;;11.15;;
17714;SDS011;8977;50.902;4.314;2022-08-01T03:38:53;15.65;;;10.05;;
17714;SDS011;8977;50.902;4.314;2022-08-01T03:41:26;17.90;;;10.93;;
17714;SDS011;8977;50.902;4.314;2022-08-01T03:43:56;16.30;;;11.00;;
17714;SDS011;8977;50.902;4.314;2022-08-01T03:46:29;13.63;;;9.55;;
17714;SDS011;8977;50.902;4.314;2022-08-01T03:49:00;15.95;;;11.10;;
17714;SDS011;8977;50.902;4.314;2022-08-01T03:51:33;15.55;;;10.20;;
17714;SDS011;8977;50.902;4.314;2022-08-01T03:54:02;16.45;;;10.20;;
17714;SDS011;8977;50.902;4.314;2022-08-01T03:56:30;17.35;;;10.50;;
17714;SDS011;8977;50.902;4.314;2022-08-01T03:58:58;13.73;;;10.23;;
17714;SDS011;8977;50.902;4.314;2022-08-01T04:01:26;13.50;;;9.95;;
17714;SDS011;8977;50.902;4.314;2022-08-01T04:03:55;18.92;;;10.63;;
17714;SDS011;8977;50.902;4.314;2022-08-01T04:06:23;13.93;;;9.75;;
17714;SDS011;8977;50.902;4.314;2022-08-01T04:08:54;14.60;;;10.57;;
17714;SDS011;8977;50.902;4.314;2022-08-01T04:11:24;14.23;;;9.80;;
17714;SDS011;8977;50.902;4.314;2022-08-01T04:13:52;12.70;;;9.57;;
17714;SDS011;8977;50.902;4.314;2022-08-01T04:16:20;14.30;;;9.82;;
17714;SDS011;8977;50.902;4.314;2022-08-01T04:18:47;13.52;;;9.38;;
17714;SDS011;8977;50.902;4.314;2022-08-01T04:21:14;13.57;;;9.82;;
17714;SDS011;8977;50.902;4.314;2022-08-01T04:23:46;13.57;;;10.05;;
17714;SDS011;8977;50.902;4.314;2022-08-01T04:26:17;13.55;;;10.10;;
17714;SDS011;8977;50.902;4.314;2022-08-01T04:28:46;13.85;;;9.23;;
17714;SDS011;8977;50.902;4.314;2022-08-01T04:31:15;11.68;;;8.80;;
17714;SDS011;8977;50.902;4.314;2022-08-01T04:33:46;12.57;;;10.02;;
17714;SDS011;8977;50.902;4.314;2022-08-01T04:36:16;12.82;;;10.35;;
17714;SDS011;8977;50.902;4.314;2022-08-01T04:38:46;13.73;;;10.18;;
17714;SDS011;8977;50.902;4.314;2022-08-01T04:41:16;12.18;;;10.25;;
17714;SDS011;8977;50.902;4.314;2022-08-01T04:43:46;11.57;;;9.98;;
17714;SDS011;8977;50.902;4.314;2022-08-01T04:46:13;11.85;;;9.85;;
17714;SDS011;8977;50.902;4.314;2022-08-01T04:48:42;10.55;;;9.50;;
17714;SDS011;8977;50.902;4.314;2022-08-01T04:51:13;14.38;;;10.55;;
17714;SDS011;8977;50.902;4.314;2022-08-01T04:53:41;12.25;;;9.55;;
17714;SDS011;8977;50.902;4.314;2022-08-01T04:56:08;13.35;;;9.93;;
17714;SDS011;8977;50.902;4.314;2022-08-01T04:58:39;15.90;;;9.93;;
17714;SDS011;8977;50.902;4.314;2022-08-01T05:01:06;11.50;;;9.25;;
17714;SDS011;8977;50.902;4.314;2022-08-01T05:03:33;11.65;;;10.45;;
17714;SDS011;8977;50.902;4.314;2022-08-01T05:06:00;11.13;;;10.05;;
17714;SDS011;8977;50.902;4.314;2022-08-01T05:08:27;9.63;;;8.63;;
17714;SDS011;8977;50.902;4.314;2022-08-01T05:10:54;12.65;;;8.88;;
17714;SDS011;8977;50.902;4.314;2022-08-01T05:13:21;11.57;;;8.57;;
17714;SDS011;8977;50.902;4.314;2022-08-01T05:15:49;10.82;;;8.73;;
17714;SDS011;8977;50.902;4.314;2022-08-01T05:18:17;9.55;;;7.88;;
17714;SDS011;8977;50.902;4.314;2022-08-01T05:20:44;8.10;;;7.28;;
17714;SDS011;8977;50.902;4.314;2022-08-01T05:23:12;12.55;;;8.23;;
17714;SDS011;8977;50.902;4.314;2022-08-01T05:25:39;12.18;;;7.93;;
17714;SDS011;8977;50.902;4.314;2022-08-01T05:28:06;10.27;;;7.47;;
17714;SDS011;8977;50.902;4.314;2022-08-01T05:30:32;9.73;;;7.88;;
17714;SDS011;8977;50.902;4.314;2022-08-01T05:33:01;8.80;;;7.28;;
17714;SDS011;8977;50.902;4.314;2022-08-01T05:35:27;9.88;;;7.45;;
17714;SDS011;8977;50.902;4.314;2022-08-01T05:37:54;8.15;;;6.53;;
17714;SDS011;8977;50.902;4.314;2022-08-01T05:40:21;6.85;;;6.07;;
17714;SDS011;8977;50.902;4.314;2022-08-01T05:42:48;8.93;;;6.95;;
17714;SDS011;8977;50.902;4.314;2022-08-01T05:45:15;10.18;;;6.82;;
17714;SDS011;8977;50.902;4.314;2022-08-01T05:47:41;8.20;;;6.85;;
17714;SDS011;8977;50.902;4.314;2022-08-01T05:50:10;9.93;;;6.68;;
17714;SDS011;8977;50.902;4.314;2022-08-01T05:52:37;8.85;;;7.70;;
17714;SDS011;8977;50.902;4.314;2022-08-01T05:55:04;9.30;;;6.60;;
17714;SDS011;8977;50.902;4.314;2022-08-01T05:57:32;9.20;;;6.60;;
17714;SDS011;8977;50.902;4.314;2022-08-01T05:59:59;8.38;;;6.15;;
17714;SDS011;8977;50.902;4.314;2022-08-01T06:02:26;6.75;;;5.38;;
17714;SDS011;8977;50.902;4.314;2022-08-01T06:04:52;6.28;;;5.20;;
17714;SDS011;8977;50.902;4.314;2022-08-01T06:07:21;7.60;;;5.50;;
17714;SDS011;8977;50.902;4.314;2022-08-01T06:09:47;49.85;;;8.65;;
17714;SDS011;8977;50.902;4.314;2022-08-01T06:12:14;19.08;;;6.63;;
17714;SDS011;8977;50.902;4.314;2022-08-01T06:14:41;8.05;;;5.10;;
17714;SDS011;8977;50.902;4.314;2022-08-01T06:17:08;6.43;;;4.60;;
17714;SDS011;8977;50.902;4.314;2022-08-01T06:19:35;11.43;;;4.90;;
17714;SDS011;8977;50.902;4.314;2022-08-01T06:22:01;9.23;;;4.68;;
17714;SDS011;8977;50.902;4.314;2022-08-01T06:24:30;5.97;;;4.03;;
17714;SDS011;8977;50.902;4.314;2022-08-01T06:26:57;6.60;;;4.28;;
17714;SDS011;8977;50.902;4.314;2022-08-01T06:29:24;5.78;;;4.80;;
17714;SDS011;8977;50.902;4.314;2022-08-01T06:31:50;5.95;;;4.45;;
17714;SDS011;8977;50.902;4.314;2022-08-01T06:34:17;4.68;;;4.22;;
17714;SDS011;8977;50.902;4.314;2022-08-01T06:36:44;4.90;;;4.25;;
17714;SDS011;8977;50.902;4.314;2022-08-01T06:39:11;5.60;;;3.83;;
17714;SDS011;8977;50.902;4.314;2022-08-01T06:41:39;4.15;;;3.75;;
17714;SDS011;8977;50.902;4.314;2022-08-01T06:44:07;5.05;;;4.55;;
17714;SDS011;8977;50.902;4.314;2022-08-01T06:46:34;5.53;;;3.55;;
17714;SDS011;8977;50.902;4.314;2022-08-01T06:49:01;5.20;;;4.38;;
17714;SDS011;8977;50.902;4.314;2022-08-01T06:51:28;4.40;;;3.63;;
17714;SDS011;8977;50.902;4.314;2022-08-01T06:53:54;5.28;;;4.10;;
17714;SDS011;8977;50.902;4.314;2022-08-01T06:56:21;5.05;;;3.25;;
17714;SDS011;8977;50.902;4.314;2022-08-01T06:58:50;6.13;;;3.20;;
17714;SDS011;8977;50.902;4.314;2022-08-01T07:01:17;4.43;;;2.67;;
17714;SDS011;8977;50.902;4.314;2022-08-01T07:03:44;4.30;;;2.75;;
17714;SDS011;8977;50.902;4.314;2022-08-01T07:06:10;4.03;;;2.70;;
17714;SDS011;8977;50.902;4.314;2022-08-01T07:08:37;2.97;;;2.42;;
17714;SDS011;8977;50.902;4.314;2022-08-01T07:11:04;5.28;;;2.40;;
17714;SDS011;8977;50.902;4.314;2022-08-01T07:13:31;2.97;;;2.63;;
17714;SDS011;8977;50.902;4.314;2022-08-01T07:15:59;3.70;;;2.15;;
17714;SDS011;8977;50.902;4.314;2022-08-01T07:18:26;3.10;;;2.53;;
17714;SDS011;8977;50.902;4.314;2022-08-01T07:20:53;3.90;;;2.30;;
17714;SDS011;8977;50.902;4.314;2022-08-01T07:23:20;1.88;;;1.77;;
17714;SDS011;8977;50.902;4.314;2022-08-01T07:25:47;2.70;;;1.90;;
17714;SDS011;8977;50.902;4.314;2022-08-01T07:28:15;2.15;;;1.80;;
17714;SDS011;8977;50.902;4.314;2022-08-01T07:30:42;1.88;;;1.63;;
17714;SDS011;8977;50.902;4.314;2022-08-01T07:33:11;1.67;;;1.58;;
17714;SDS011;8977;50.902;4.314;2022-08-01T07:35:38;2.05;;;1.70;;
17714;SDS011;8977;50.902;4.314;2022-08-01T07:38:05;2.55;;;1.30;;
17714;SDS011;8977;50.902;4.314;2022-08-01T07:40:32;2.13;;;1.27;;
17714;SDS011;8977;50.902;4.314;2022-08-01T07:42:59;1.70;;;1.38;;
17714;SDS011;8977;50.902;4.314;2022-08-01T07:45:25;2.28;;;1.52;;
17714;SDS011;8977;50.902;4.314;2022-08-01T07:47:52;2.13;;;1.48;;
17714;SDS011;8977;50.902;4.314;2022-08-01T07:50:21;1.60;;;1.40;;
17714;SDS011;8977;50.902;4.314;2022-08-01T07:52:47;3.60;;;1.63;;
17714;SDS011;8977;50.902;4.314;2022-08-01T07:55:14;1.60;;;1.50;;
17714;SDS011;8977;50.902;4.314;2022-08-01T07:57:41;1.77;;;1.55;;
17714;SDS011;8977;50.902;4.314;2022-08-01T08:00:08;1.83;;;1.50;;
17714;SDS011;8977;50.902;4.314;2022-08-01T08:02:35;1.50;;;1.30;;
17714;SDS011;8977;50.902;4.314;2022-08-01T08:05:02;7.45;;;1.55;;
17714;SDS011;8977;50.902;4.314;2022-08-01T08:07:32;1.80;;;1.33;;
17714;SDS011;8977;50.902;4.314;2022-08-01T08:09:59;1.55;;;1.42;;
17714;SDS011;8977;50.902;4.314;2022-08-01T08:12:26;2.15;;;1.48;;
17714;SDS011;8977;50.902;4.314;2022-08-01T08:14:53;2.42;;;1.70;;
17714;SDS011;8977;50.902;4.314;2022-08-01T08:17:20;1.20;;;1.10;;
17714;SDS011;8977;50.902;4.314;2022-08-01T08:19:47;1.65;;;1.10;;
17714;SDS011;8977;50.902;4.314;2022-08-01T08:22:14;1.20;;;1.10;;
17714;SDS011;8977;50.902;4.314;2022-08-01T08:24:42;2.38;;;1.13;;
17714;SDS011;8977;50.902;4.314;2022-08-01T08:27:10;2.35;;;1.10;;
17714;SDS011;8977;50.902;4.314;2022-08-01T08:29:37;2.22;;;1.20;;
17714;SDS011;8977;50.902;4.314;2022-08-01T08:32:04;1.40;;;1.30;;
17714;SDS011;8977;50.902;4.314;2022-08-01T08:34:32;1.00;;;1.00;;
17714;SDS011;8977;50.902;4.314;2022-08-01T08:36:59;1.52;;;1.02;;
17714;SDS011;8977;50.902;4.314;2022-08-01T08:39:26;1.50;;;1.20;;
17714;SDS011;8977;50.902;4.314;2022-08-01T08:41:55;1.00;;;0.90;;
17714;SDS011;8977;50.902;4.314;2022-08-01T08:44:23;1.42;;;1.27;;
17714;SDS011;8977;50.902;4.314;2022-08-01T08:46:50;1.67;;;1.58;;
17714;SDS011;8977;50.902;4.314;2022-08-01T08:49:19;1.85;;;1.48;;
17714;SDS011;8977;50.902;4.314;2022-08-01T08:51:48;1.40;;;1.30;;
17714;SDS011;8977;50.902;4.314;2022-08-01T08:54:17;1.90;;;1.30;;
17714;SDS011;8977;50.902;4.314;2022-08-01T08:56:45;1.23;;;1.10;;
17714;SDS011;8977;50.902;4.314;2022-08-01T08:59:14;2.58;;;1.30;;
17714;SDS011;8977;50.902;4.314;2022-08-01T09:01:41;1.52;;;1.13;;
17714;SDS011;8977;50.902;4.314;2022-08-01T09:04:09;1.23;;;1.13;;
17714;SDS011;8977;50.902;4.314;2022-08-01T09:06:36;2.13;;;1.05;;
17714;SDS011;8977;50.902;4.314;2022-08-01T09:09:04;1.45;;;1.05;;
17714;SDS011;8977;50.902;4.314;2022-08-01T09:11:31;1.75;;;1.00;;
17714;SDS011;8977;50.902;4.314;2022-08-01T09:14:06;3.15;;;1.20;;
17714;SDS011;8977;50.902;4.314;2022-08-01T09:16:36;1.10;;;1.00;;
17714;SDS011;8977;50.902;4.314;2022-08-01T09:19:06;1.10;;;0.95;;
17714;SDS011;8977;50.902;4.314;2022-08-01T09:21:35;1.08;;;0.98;;
17714;SDS011;8977;50.902;4.314;2022-08-01T09:24:03;1.20;;;1.10;;
17714;SDS011;8977;50.902;4.314;2022-08-01T09:26:31;1.23;;;1.00;;
17714;SDS011;8977;50.902;4.314;2022-08-01T09:29:00;1.08;;;0.82;;
17714;SDS011;8977;50.902;4.314;2022-08-01T09:31:38;1.90;;;0.85;;
17714;SDS011;8977;50.902;4.314;2022-08-01T09:34:07;1.35;;;0.98;;
17714;SDS011;8977;50.902;4.314;2022-08-01T09:36:48;1.15;;;0.70;;
17714;SDS011;8977;50.902;4.314;2022-08-01T09:39:21;1.13;;;0.95;;
17714;SDS011;8977;50.902;4.314;2022-08-01T09:41:49;0.65;;;0.65;;
17714;SDS011;8977;50.902;4.314;2022-08-01T09:44:17;0.70;;;0.70;;
17714;SDS011;8977;50.902;4.314;2022-08-01T09:46:53;3.03;;;0.90;;
17714;SDS011;8977;50.902;4.314;2022-08-01T09:49:26;1.77;;;1.00;;
17714;SDS011;8977;50.902;4.314;2022-08-01T09:51:59;2.75;;;1.00;;
17714;SDS011;8977;50.902;4.314;2022-08-01T09:54:36;0.80;;;0.80;;
17714;SDS011;8977;50.902;4.314;2022-08-01T09:57:10;0.80;;;0.80;;
17714;SDS011;8977;50.902;4.314;2022-08-01T09:59:39;1.10;;;0.85;;
17714;SDS011;8977;50.902;4.314;2022-08-01T10:02:14;1.48;;;1.00;;
17714;SDS011;8977;50.902;4.314;2022-08-01T10:04:53;1.83;;;0.90;;
17714;SDS011;8977;50.902;4.314;2022-08-01T10:07:20;0.93;;;0.93;;
17714;SDS011;8977;50.902;4.314;2022-08-01T10:09:47;0.85;;;0.80;;
17714;SDS011;8977;50.902;4.314;2022-08-01T10:12:15;1.33;;;0.90;;
17714;SDS011;8977;50.902;4.314;2022-08-01T10:14:44;0.98;;;0.93;;
17714;SDS011;8977;50.902;4.314;2022-08-01T10:17:14;1.60;;;1.10;;
17714;SDS011;8977;50.902;4.314;2022-08-01T10:19:42;1.05;;;1.00;;
17714;SDS011;8977;50.902;4.314;2022-08-01T10:22:10;1.30;;;0.82;;
17714;SDS011;8977;50.902;4.314;2022-08-01T10:24:41;1.38;;;0.80;;
17714;SDS011;8977;50.902;4.314;2022-08-01T10:27:11;0.73;;;0.73;;
17714;SDS011;8977;50.902;4.314;2022-08-01T10:29:41;1.40;;;0.90;;
17714;SDS011;8977;50.902;4.314;2022-08-01T10:32:13;1.25;;;0.98;;
17714;SDS011;8977;50.902;4.314;2022-08-01T10:34:41;0.85;;;0.68;;
17714;SDS011;8977;50.902;4.314;2022-08-01T10:37:08;0.95;;;0.70;;
17714;SDS011;8977;50.902;4.314;2022-08-01T10:39:36;1.85;;;0.90;;
17714;SDS011;8977;50.902;4.314;2022-08-01T10:42:05;0.85;;;0.70;;
17714;SDS011;8977;50.902;4.314;2022-08-01T10:44:35;0.63;;;0.60;;
17714;SDS011;8977;50.902;4.314;2022-08-01T10:47:08;1.35;;;0.70;;
17714;SDS011;8977;50.902;4.314;2022-08-01T10:49:41;1.55;;;0.85;;
17714;SDS011;8977;50.902;4.314;2022-08-01T10:52:14;1.08;;;0.80;;
17714;SDS011;8977;50.902;4.314;2022-08-01T10:54:42;0.95;;;0.73;;
17714;SDS011;8977;50.902;4.314;2022-08-01T10:57:08;2.55;;;0.90;;
17714;SDS011;8977;50.902;4.314;2022-08-01T10:59:47;1.88;;;0.73;;
17714;SDS011;8977;50.902;4.314;2022-08-01T11:02:19;1.55;;;0.90;;
17714;SDS011;8977;50.902;4.314;2022-08-01T11:04:56;0.82;;;0.65;;
17714;SDS011;8977;50.902;4.314;2022-08-01T11:07:35;1.45;;;0.75;;
17714;SDS011;8977;50.902;4.314;2022-08-01T11:10:14;2.33;;;0.70;;
17714;SDS011;8977;50.902;4.314;2022-08-01T11:12:46;1.45;;;0.70;;
17714;SDS011;8977;50.902;4.314;2022-08-01T11:15:17;0.95;;;0.80;;
17714;SDS011;8977;50.902;4.314;2022-08-01T11:17:51;1.90;;;0.75;;
17714;SDS011;8977;50.902;4.314;2022-08-01T11:20:20;0.77;;;0.75;;
17714;SDS011;8977;50.902;4.314;2022-08-01T11:26:09;1.08;;;0.90;;
17714;SDS011;8977;50.902;4.314;2022-08-01T11:28:40;1.63;;;1.00;;
17714;SDS011;8977;50.902;4.314;2022-08-01T11:31:28;1.38;;;1.10;;
17714;SDS011;8977;50.902;4.314;2022-08-01T11:33:56;1.50;;;1.08;;
17714;SDS011;8977;50.902;4.314;2022-08-01T11:36:25;1.17;;;0.90;;
17714;SDS011;8977;50.902;4.314;2022-08-01T11:39:12;2.17;;;1.17;;
17714;SDS011;8977;50.902;4.314;2022-08-01T11:41:40;1.52;;;1.23;;
17714;SDS011;8977;50.902;4.314;2022-08-01T11:44:09;1.00;;;1.00;;
17714;SDS011;8977;50.902;4.314;2022-08-01T11:46:54;0.98;;;0.82;;
17714;SDS011;8977;50.902;4.314;2022-08-01T11:49:28;1.13;;;0.90;;
17714;SDS011;8977;50.902;4.314;2022-08-01T11:52:03;0.90;;;0.90;;
17714;SDS011;8977;50.902;4.314;2022-08-01T11:54:32;1.42;;;1.02;;
17714;SDS011;8977;50.902;4.314;2022-08-01T11:57:01;3.90;;;1.35;;
17714;SDS011;8977;50.902;4.314;2022-08-01T11:59:34;3.65;;;1.05;;
17714;SDS011;8977;50.902;4.314;2022-08-01T12:02:02;2.20;;;0.93;;
17714;SDS011;8977;50.902;4.314;2022-08-01T12:04:43;1.75;;;1.08;;
17714;SDS011;8977;50.902;4.314;2022-08-01T12:07:13;2.05;;;1.00;;
17714;SDS011;8977;50.902;4.314;2022-08-01T12:09:40;1.83;;;1.10;;
17714;SDS011;8977;50.902;4.314;2022-08-01T12:12:07;1.55;;;1.05;;
17714;SDS011;8977;50.902;4.314;2022-08-01T12:14:35;2.88;;;1.50;;
17714;SDS011;8977;50.902;4.314;2022-08-01T12:17:02;1.20;;;0.80;;
17714;SDS011;8977;50.902;4.314;2022-08-01T12:19:29;2.20;;;1.30;;
17714;SDS011;8977;50.902;4.314;2022-08-01T12:22:09;1.70;;;0.82;;
17714;SDS011;8977;50.902;4.314;2022-08-01T12:24:39;2.88;;;1.00;;
17714;SDS011;8977;50.902;4.314;2022-08-01T12:27:07;2.75;;;1.38;;
17714;SDS011;8977;50.902;4.314;2022-08-01T12:29:36;1.98;;;1.33;;
17714;SDS011;8977;50.902;4.314;2022-08-01T12:32:15;4.00;;;1.38;;
17714;SDS011;8977;50.902;4.314;2022-08-01T12:34:48;2.72;;;1.10;;
17714;SDS011;8977;50.902;4.314;2022-08-01T12:37:15;2.28;;;1.00;;
17714;SDS011;8977;50.902;4.314;2022-08-01T12:39:44;3.33;;;1.15;;
17714;SDS011;8977;50.902;4.314;2022-08-01T12:42:12;1.38;;;0.80;;
17714;SDS011;8977;50.902;4.314;2022-08-01T12:44:40;1.95;;;1.10;;
17714;SDS011;8977;50.902;4.314;2022-08-01T12:47:10;1.27;;;0.98;;
17714;SDS011;8977;50.902;4.314;2022-08-01T12:49:38;4.10;;;1.20;;
17714;SDS011;8977;50.902;4.314;2022-08-01T12:52:07;3.40;;;1.20;;
17714;SDS011;8977;50.902;4.314;2022-08-01T12:57:34;2.65;;;1.10;;
17714;SDS011;8977;50.902;4.314;2022-08-01T13:00:10;1.10;;;0.95;;
17714;SDS011;8977;50.902;4.314;2022-08-01T13:02:41;1.85;;;1.50;;
17714;SDS011;8977;50.902;4.314;2022-08-01T13:05:08;1.10;;;0.93;;
17714;SDS011;8977;50.902;4.314;2022-08-01T13:07:39;2.88;;;1.30;;
17714;SDS011;8977;50.902;4.314;2022-08-01T13:10:10;2.50;;;1.10;;
17714;SDS011;8977;50.902;4.314;2022-08-01T13:12:38;2.28;;;1.05;;
17714;SDS011;8977;50.902;4.314;2022-08-01T13:15:22;2.10;;;1.00;;
17714;SDS011;8977;50.902;4.314;2022-08-01T13:17:56;2.15;;;1.00;;
17714;SDS011;8977;50.902;4.314;2022-08-01T13:20:27;3.50;;;0.95;;
17714;SDS011;8977;50.902;4.314;2022-08-01T13:23:12;0.90;;;0.90;;
17714;SDS011;8977;50.902;4.314;2022-08-01T13:25:52;1.30;;;0.93;;
17714;SDS011;8977;50.902;4.314;2022-08-01T13:28:21;1.38;;;0.80;;
17714;SDS011;8977;50.902;4.314;2022-08-01T13:30:56;1.90;;;0.90;;
17714;SDS011;8977;50.902;4.314;2022-08-01T13:33:25;1.33;;;1.00;;
17714;SDS011;8977;50.902;4.314;2022-08-01T13:35:54;1.10;;;0.93;;
17714;SDS011;8977;50.902;4.314;2022-08-01T13:38:22;1.27;;;0.65;;
17714;SDS011;8977;50.902;4.314;2022-08-01T13:41:04;1.98;;;1.25;;
17714;SDS011;8977;50.902;4.314;2022-08-01T13:43:31;1.75;;;1.13;;
17714;SDS011;8977;50.902;4.314;2022-08-01T13:45:58;2.00;;;0.90;;
17714;SDS011;8977;50.902;4.314;2022-08-01T13:48:27;1.38;;;1.10;;
17714;SDS011;8977;50.902;4.314;2022-08-01T13:50:54;2.35;;;1.05;;
17714;SDS011;8977;50.902;4.314;2022-08-01T13:53:21;1.83;;;0.90;;
17714;SDS011;8977;50.902;4.314;2022-08-01T13:55:48;1.58;;;0.88;;
17714;SDS011;8977;50.902;4.314;2022-08-01T13:58:16;1.00;;;0.90;;
17714;SDS011;8977;50.902;4.314;2022-08-01T14:00:43;1.58;;;0.98;;
17714;SDS011;8977;50.902;4.314;2022-08-01T14:03:10;1.15;;;0.80;;
17714;SDS011;8977;50.902;4.314;2022-08-01T14:05:37;1.00;;;0.80;;
17714;SDS011;8977;50.902;4.314;2022-08-01T14:08:04;1.35;;;1.00;;
17714;SDS011;8977;50.902;4.314;2022-08-01T14:10:32;3.28;;;1.15;;
17714;SDS011;8977;50.902;4.314;2022-08-01T14:12:58;1.88;;;0.90;;
17714;SDS011;8977;50.902;4.314;2022-08-01T14:15:27;2.15;;;1.00;;
17714;SDS011;8977;50.902;4.314;2022-08-01T14:17:54;0.70;;;0.70;;
17714;SDS011;8977;50.902;4.314;2022-08-01T14:20:20;1.02;;;0.90;;
17714;SDS011;8977;50.902;4.314;2022-08-01T14:22:47;2.35;;;0.90;;
17714;SDS011;8977;50.902;4.314;2022-08-01T14:25:14;0.98;;;0.90;;
17714;SDS011;8977;50.902;4.314;2022-08-01T14:27:43;1.08;;;0.80;;
17714;SDS011;8977;50.902;4.314;2022-08-01T14:30:10;1.27;;;0.85;;
17714;SDS011;8977;50.902;4.314;2022-08-01T14:32:39;2.20;;;0.90;;
17714;SDS011;8977;50.902;4.314;2022-08-01T14:35:06;1.50;;;1.10;;
17714;SDS011;8977;50.902;4.314;2022-08-01T14:37:34;2.55;;;1.20;;
17714;SDS011;8977;50.902;4.314;2022-08-01T14:40:01;0.82;;;0.82;;
17714;SDS011;8977;50.902;4.314;2022-08-01T14:42:30;2.38;;;0.95;;
17714;SDS011;8977;50.902;4.314;2022-08-01T14:44:57;2.00;;;1.05;;
17714;SDS011;8977;50.902;4.314;2022-08-01T14:47:24;0.90;;;0.80;;
17714;SDS011;8977;50.902;4.314;2022-08-01T14:49:52;1.13;;;0.90;;
17714;SDS011;8977;50.902;4.314;2022-08-01T14:52:19;1.73;;;0.80;;
17714;SDS011;8977;50.902;4.314;2022-08-01T14:54:46;0.90;;;0.70;;
17714;SDS011;8977;50.902;4.314;2022-08-01T14:57:13;1.02;;;0.90;;
17714;SDS011;8977;50.902;4.314;2022-08-01T14:59:43;1.15;;;0.77;;
17714;SDS011;8977;50.902;4.314;2022-08-01T15:02:09;2.20;;;1.00;;
17714;SDS011;8977;50.902;4.314;2022-08-01T15:04:38;1.02;;;0.82;;
17714;SDS011;8977;50.902;4.314;2022-08-01T15:07:06;1.13;;;1.00;;
17714;SDS011;8977;50.902;4.314;2022-08-01T15:09:33;2.88;;;1.10;;
17714;SDS011;8977;50.902;4.314;2022-08-01T15:12:00;2.35;;;1.15;;
17714;SDS011;8977;50.902;4.314;2022-08-01T15:14:27;2.85;;;1.13;;
17714;SDS011;8977;50.902;4.314;2022-08-01T15:17:11;2.08;;;0.90;;